Time;durP1;ratioP1;P1;durP2;ratioP2;P2;SDS_P1;SDS_P2;PMS_P1;PMS_P2;Temp;Humidity;BMP_temperature;BMP_pressure;BME280_temperature;BME280_humidity;BME280_pressure;Samples;Min_cycle;Max_cycle;Signal;HPM_P1;HPM_P2
2020/12/13 00:00:00;;;;;;;19.62;13.53;;;;;;;7.06;79.63;99982.88;1711130;83;21370;-62
2020/12/13 00:02:31;;;;;;;21.70;14.38;;;;;;;7.11;79.50;99986.35;1748337;82;21852;-63
2020/12/13 00:04:59;;;;;;;24.82;13.28;;;;;;;7.12;79.37;99989.83;1710355;83;21313;-61
2020/12/13 00:07:27;;;;;;;21.50;14.53;;;;;;;7.13;79.26;99989.83;1749493;82;21145;-63
2020/12/13 00:09:55;;;;;;;20.50;14.07;;;;;;;7.14;79.18;99988.07;1750633;81;21181;-63
2020/12/13 00:12:22;;;;;;;20.52;14.55;;;;;;;7.13;79.10;99992.45;1757235;81;21143;-61
2020/12/13 00:14:51;;;;;;;24.25;14.45;;;;;;;7.11;79.10;99997.24;1765969;81;21523;-61
2020/12/13 00:17:18;;;;;;;23.35;14.68;;;;;;;7.09;79.07;99981.98;1748180;82;21161;-63
2020/12/13 00:19:46;;;;;;;22.22;14.55;;;;;;;7.09;79.04;99987.22;1748077;81;21162;-60
2020/12/13 00:22:14;;;;;;;28.27;15.58;;;;;;;7.02;79.23;99991.62;1709909;83;21477;-63
2020/12/13 00:24:41;;;;;;;25.75;14.05;;;;;;;6.97;79.45;99990.76;1741058;82;21216;-63
2020/12/13 00:27:09;;;;;;;21.15;14.18;;;;;;;6.99;79.35;99982.05;1750017;81;21155;-63
2020/12/13 00:29:37;;;;;;;24.18;12.85;;;;;;;7.08;79.05;99978.94;1755970;80;21140;-63
2020/12/13 00:32:05;;;;;;;21.33;14.05;;;;;;;7.08;78.93;99981.13;1754101;81;21143;-63
2020/12/13 00:34:33;;;;;;;24.57;14.83;;;;;;;7.07;78.87;99973.27;1713273;83;21595;-61
2020/12/13 00:37:01;;;;;;;24.18;14.80;;;;;;;7.06;78.86;99972.41;1751543;81;21144;-65
2020/12/13 00:39:28;;;;;;;27.45;14.80;;;;;;;7.02;78.96;99977.68;1758954;80;21166;-61
2020/12/13 00:41:56;;;;;;;23.60;13.60;;;;;;;7.01;79.00;99975.94;1740479;82;21147;-61
2020/12/13 00:44:23;;;;;;;20.50;13.13;;;;;;;7.06;79.15;99980.72;1744930;82;21208;-61
2020/12/13 00:46:53;;;;;;;22.30;14.85;;;;;;;7.05;79.36;99975.05;1711439;83;21151;-64
2020/12/13 00:49:21;;;;;;;21.65;14.98;;;;;;;7.07;79.25;99969.34;1747890;81;21158;-64
2020/12/13 00:51:49;;;;;;;22.45;14.35;;;;;;;7.10;79.17;99979.80;1745103;82;21131;-61
2020/12/13 00:54:17;;;;;;;22.58;14.60;;;;;;;7.07;79.15;99984.63;1713695;83;21100;-61
2020/12/13 00:56:45;;;;;;;24.50;15.10;;;;;;;7.08;79.10;99981.55;1750513;81;21119;-60
2020/12/13 00:59:14;;;;;;;23.25;15.13;;;;;;;7.06;79.12;99979.41;1711466;83;21160;-63
2020/12/13 01:01:42;;;;;;;28.30;16.30;;;;;;;7.05;79.17;99985.52;1750560;81;21120;-64
2020/12/13 01:04:09;;;;;;;25.23;16.25;;;;;;;7.04;79.12;99979.85;1756265;81;21118;-62
2020/12/13 01:06:38;;;;;;;26.57;15.83;;;;;;;7.03;79.11;99989.89;1752436;81;21175;-61
2020/12/13 01:09:05;;;;;;;24.30;15.88;;;;;;;7.01;79.12;99991.64;1757384;81;21546;-64
2020/12/13 01:11:34;;;;;;;25.68;15.50;;;;;;;7.03;79.03;99992.50;1748079;82;21150;-64
2020/12/13 01:14:02;;;;;;;23.90;15.25;;;;;;;7.03;78.86;99993.36;1747934;82;21175;-61
2020/12/13 01:16:30;;;;;;;25.37;16.15;;;;;;;7.04;78.78;99987.70;1704179;83;21154;-62
2020/12/13 01:18:59;;;;;;;26.52;15.45;;;;;;;7.04;78.74;99990.32;1744812;82;21154;-62
2020/12/13 01:21:29;;;;;;;31.65;16.12;;;;;;;7.04;78.67;99989.02;1748047;82;21139;-61
2020/12/13 01:23:57;;;;;;;26.97;15.48;;;;;;;6.92;79.03;99985.98;1706733;83;21579;-64
2020/12/13 01:26:25;;;;;;;27.65;15.90;;;;;;;7.02;78.67;99981.15;1759284;81;21135;-64
2020/12/13 01:28:54;;;;;;;31.50;15.55;;;;;;;6.97;78.81;99989.45;1750596;81;21111;-61
2020/12/13 01:31:23;;;;;;;28.23;15.90;;;;;;;7.06;78.49;99982.88;1763458;80;21132;-64
2020/12/13 01:33:52;;;;;;;27.20;14.43;;;;;;;7.09;78.33;99981.56;1751655;81;21254;-61
2020/12/13 01:36:22;;;;;;;30.12;15.03;;;;;;;7.13;78.16;99983.29;1750188;81;21277;-61
2020/12/13 01:38:51;;;;;;;28.30;15.38;;;;;;;7.16;78.00;99987.63;1746041;81;21321;-60
2020/12/13 01:41:18;;;;;;;26.97;15.10;;;;;;;7.05;78.33;99983.76;1747911;82;21261;-61
2020/12/13 01:44:01;;;;;;;28.98;14.30;;;;;;;7.03;78.40;99982.03;1698822;83;21210;-61
2020/12/13 01:46:29;;;;;;;29.72;16.97;;;;;;;7.00;78.42;99982.91;1746961;81;21190;-64
2020/12/13 01:49:03;;;;;;;32.08;17.07;;;;;;;6.98;78.49;99984.23;1748006;82;21157;-64
2020/12/13 01:52:06;;;;;;;31.97;16.45;;;;;;;7.00;78.39;99980.28;1748064;82;21582;-61
2020/12/13 01:54:22;;;;;;;28.60;16.82;;;;;;;7.00;78.29;99975.05;1746150;81;21301;-61
2020/12/13 01:56:52;;;;;;;32.25;16.93;;;;;;;6.98;78.31;99980.73;1728080;82;21128;-63
2020/12/13 01:59:21;;;;;;;31.90;16.23;;;;;;;6.96;78.35;99982.05;1748063;82;21247;-64
2020/12/13 02:01:56;;;;;;;32.63;16.40;;;;;;;6.98;78.29;99984.66;1743455;82;21144;-60
2020/12/13 02:04:24;;;;;;;36.75;16.93;;;;;;;6.99;78.28;99985.09;1750673;81;21578;-63
2020/12/13 02:06:54;;;;;;;25.72;15.53;;;;;;;6.95;78.23;99980.31;1751724;82;21160;-60
2020/12/13 02:09:22;;;;;;;30.97;14.98;;;;;;;6.96;78.24;99981.17;1724652;80;21182;-60
2020/12/13 02:11:50;;;;;;;32.90;14.95;;;;;;;6.94;78.26;99979.88;1716546;83;21136;-63
2020/12/13 02:14:18;;;;;;;28.57;15.78;;;;;;;6.93;78.33;99977.25;1716627;82;21588;-60
2020/12/13 02:16:51;;;;;;;30.77;16.10;;;;;;;6.92;78.30;99974.20;1755974;82;21144;-63
2020/12/13 02:19:19;;;;;;;31.82;15.78;;;;;;;6.89;78.33;99979.03;1755901;81;21158;-60
2020/12/13 02:21:50;;;;;;;27.05;15.63;;;;;;;6.84;78.49;99977.71;1757272;80;21162;-60
2020/12/13 02:24:18;;;;;;;30.02;15.83;;;;;;;6.78;78.69;99980.38;1756052;80;21616;-60
2020/12/13 02:26:46;;;;;;;26.48;14.45;;;;;;;6.78;78.71;99982.11;1755791;81;21164;-59
2020/12/13 02:29:14;;;;;;;28.27;15.50;;;;;;;6.79;78.65;99986.05;1756714;81;21541;-60
2020/12/13 02:31:42;;;;;;;29.05;15.48;;;;;;;6.78;78.65;99986.92;1760682;80;21118;-60
2020/12/13 02:34:10;;;;;;;26.75;15.00;;;;;;;6.79;78.65;99983.84;1755988;80;21167;-63
2020/12/13 02:36:38;;;;;;;27.45;15.45;;;;;;;6.81;78.46;99985.60;1755926;81;21615;-60
2020/12/13 02:39:06;;;;;;;28.42;15.35;;;;;;;6.77;78.56;99981.25;1760477;80;21146;-60
2020/12/13 02:41:34;;;;;;;27.75;15.85;;;;;;;6.78;78.47;99981.69;1749380;80;21172;-63
2020/12/13 02:44:02;;;;;;;27.50;15.23;;;;;;;6.81;78.25;99981.68;1755943;80;21176;-59
2020/12/13 02:46:29;;;;;;;27.05;15.18;;;;;;;6.83;78.13;99978.63;1755979;81;21128;-62
2020/12/13 02:48:57;;;;;;;25.95;15.45;;;;;;;6.85;78.04;99981.22;1762139;80;21624;-63
2020/12/13 02:51:26;;;;;;;27.00;15.65;;;;;;;6.84;78.04;99982.95;1741612;81;21108;-60
2020/12/13 02:53:53;;;;;;;23.32;13.78;;;;;;;6.78;78.23;99976.88;1756086;82;21155;-64
2020/12/13 02:56:21;;;;;;;22.93;13.25;;;;;;;6.78;78.23;99980.38;1752550;80;21292;-61
2020/12/13 02:58:49;;;;;;;23.22;14.23;;;;;;;6.78;78.22;99979.49;1759085;80;21178;-63
2020/12/13 03:01:17;;;;;;;24.20;14.50;;;;;;;6.74;78.32;99983.88;1758784;81;21583;-60
2020/12/13 03:03:46;;;;;;;31.27;15.23;;;;;;;6.81;78.10;99984.72;1711694;83;21139;-60
2020/12/13 03:06:14;;;;;;;26.45;14.50;;;;;;;6.83;77.94;99985.16;1759058;81;21605;-63
2020/12/13 03:08:41;;;;;;;25.85;13.68;;;;;;;6.81;77.96;99992.56;1752365;81;21108;-62
2020/12/13 03:11:09;;;;;;;24.45;14.38;;;;;;;6.83;77.87;99990.81;1735849;81;21146;-62
2020/12/13 03:13:37;;;;;;;26.07;14.55;;;;;;;6.83;77.79;99982.97;1760855;81;21147;-61
2020/12/13 03:16:04;;;;;;;24.65;14.63;;;;;;;6.83;77.71;99976.00;1758881;81;21146;-61
2020/12/13 03:18:32;;;;;;;25.68;15.38;;;;;;;6.83;77.67;99984.27;1755559;81;21164;-59
2020/12/13 03:21:00;;;;;;;26.50;15.70;;;;;;;6.81;77.67;99988.22;1755319;81;21127;-59
2020/12/13 03:23:27;;;;;;;28.83;15.25;;;;;;;6.85;77.48;99984.69;1752023;81;21160;-63
2020/12/13 03:25:55;;;;;;;25.50;14.40;;;;;;;6.85;77.39;99988.61;1741870;81;21721;-63
2020/12/13 03:28:23;;;;;;;29.80;16.77;;;;;;;6.84;77.47;99986.02;1754368;81;21296;-60
2020/12/13 03:30:51;;;;;;;31.62;15.38;;;;;;;6.80;77.48;99977.74;1757083;81;21284;-59
2020/12/13 03:33:18;;;;;;;35.85;17.27;;;;;;;6.69;77.84;99985.63;1760048;81;21100;-60
2020/12/13 03:35:46;;;;;;;31.00;16.00;;;;;;;6.67;77.89;99975.61;1737703;81;21088;-59
2020/12/13 03:38:14;;;;;;;25.00;15.83;;;;;;;6.64;77.97;99979.53;1762939;81;21539;-59
2020/12/13 03:40:41;;;;;;;29.40;15.65;;;;;;;6.63;77.97;99979.95;1749421;81;21307;-60
2020/12/13 03:43:09;;;;;;;26.95;14.68;;;;;;;6.61;78.06;99986.08;1751399;81;21146;-60
2020/12/13 03:45:36;;;;;;;27.22;15.40;;;;;;;6.62;77.94;99988.70;1746386;81;21170;-63
2020/12/13 03:48:04;;;;;;;28.12;14.95;;;;;;;6.64;77.88;99989.55;1733247;81;21143;-60
2020/12/13 03:50:41;;;;;;;28.73;14.75;;;;;;;6.60;77.94;99991.77;1735735;81;21226;-59
2020/12/13 03:53:11;;;;;;;28.42;16.02;;;;;;;6.55;78.12;99990.90;1753629;81;21123;-63
2020/12/13 03:55:39;;;;;;;;;;;;;;;6.53;78.15;99990.88;1742749;81;21590;-62
2020/12/13 03:58:09;;;;;;;26.33;13.68;;;;;;;6.55;78.09;100000.05;1747622;81;20181;-63
2020/12/13 04:00:36;;;;;;;24.98;14.65;;;;;;;6.55;78.09;99998.74;1747907;81;21632;-61
2020/12/13 04:03:04;;;;;;;26.70;14.98;;;;;;;6.51;78.10;99988.70;1710538;84;21179;-62
2020/12/13 04:05:33;;;;;;;25.50;15.25;;;;;;;6.52;78.16;99994.83;1746812;81;21167;-63
2020/12/13 04:08:01;;;;;;;28.02;13.90;;;;;;;6.49;78.21;99995.68;1752595;81;21179;-63
2020/12/13 04:10:28;;;;;;;24.00;14.78;;;;;;;6.51;78.16;100004.84;1759847;80;21131;-63
2020/12/13 04:12:56;;;;;;;24.23;13.62;;;;;;;6.58;77.95;100002.66;1747595;81;21135;-60
2020/12/13 04:15:24;;;;;;;26.15;13.58;;;;;;;6.61;77.81;100006.58;1755996;80;21152;-59
2020/12/13 04:17:52;;;;;;;21.80;12.82;;;;;;;6.63;77.75;100003.95;1756237;81;21147;-60
2020/12/13 04:20:20;;;;;;;25.48;13.53;;;;;;;6.66;77.56;100004.80;1755596;80;21378;-59
2020/12/13 04:22:48;;;;;;;26.15;13.62;;;;;;;6.60;77.81;99999.61;1755855;81;21138;-59
2020/12/13 04:25:15;;;;;;;25.92;13.50;;;;;;;6.68;77.52;99995.20;1755961;80;21120;-62
2020/12/13 04:27:43;;;;;;;24.80;13.08;;;;;;;6.66;77.56;99996.95;1755956;81;21574;-60
2020/12/13 04:30:10;;;;;;;26.95;14.07;;;;;;;6.64;77.60;99990.85;1745324;80;21432;-62
2020/12/13 04:32:38;;;;;;;23.32;13.95;;;;;;;6.65;77.51;99996.97;1755911;81;21120;-63
2020/12/13 04:35:07;;;;;;;28.35;14.03;;;;;;;6.64;77.45;99996.53;1755971;80;21205;-60
2020/12/13 04:37:35;;;;;;;23.90;14.03;;;;;;;6.66;77.43;100003.49;1760012;80;21561;-63
2020/12/13 04:40:04;;;;;;;25.62;13.72;;;;;;;6.69;77.37;100000.88;1749160;80;21129;-63
2020/12/13 04:42:35;;;;;;;29.07;13.53;;;;;;;6.77;77.11;100003.48;1743157;81;21168;-60
2020/12/13 04:45:06;;;;;;;29.25;14.07;;;;;;;6.77;77.05;99998.25;1766873;81;21502;-63
2020/12/13 04:47:33;;;;;;;24.27;14.23;;;;;;;6.89;76.76;99997.34;1775992;80;21091;-63
2020/12/13 04:50:04;;;;;;;23.50;12.95;;;;;;;6.87;76.74;99995.16;1724492;82;21180;-60
2020/12/13 04:52:31;;;;;;;26.75;14.70;;;;;;;6.75;77.15;100000.42;1755280;81;21176;-63
2020/12/13 04:54:59;;;;;;;22.02;13.32;;;;;;;6.81;77.02;99997.38;1756111;80;21594;-60
2020/12/13 04:57:26;;;;;;;28.00;13.20;;;;;;;6.75;77.14;99991.27;1773727;80;21174;-60
2020/12/13 04:59:54;;;;;;;25.57;13.85;;;;;;;6.72;77.29;100000.43;1695429;83;21160;-60
2020/12/13 05:02:21;;;;;;;24.80;13.10;;;;;;;6.71;77.29;99998.27;1711288;81;21172;-64
2020/12/13 05:04:49;;;;;;;25.65;14.47;;;;;;;6.72;77.23;99997.39;1757733;80;21169;-61
2020/12/13 05:07:19;;;;;;;22.10;14.07;;;;;;;6.74;77.15;99998.68;1753100;80;21515;-64
2020/12/13 05:09:50;;;;;;;27.27;14.18;;;;;;;6.76;77.02;99996.52;1728072;82;21190;-65
2020/12/13 05:12:23;;;;;;;26.60;13.88;;;;;;;6.71;77.09;99990.42;1742044;81;21139;-61
2020/12/13 05:14:51;;;;;;;23.90;15.25;;;;;;;6.71;77.16;99996.96;1754254;81;21168;-63
2020/12/13 05:17:18;;;;;;;25.25;15.08;;;;;;;6.67;77.26;99996.53;1751061;81;21570;-63
2020/12/13 05:19:49;;;;;;;27.40;14.10;;;;;;;6.62;77.47;99996.55;1682864;84;21150;-63
2020/12/13 05:22:21;;;;;;;22.25;13.65;;;;;;;6.60;77.45;100002.22;1689530;84;21265;-63
2020/12/13 05:24:49;;;;;;;23.80;14.60;;;;;;;6.59;77.49;100000.48;1764675;81;21112;-63
2020/12/13 05:27:23;;;;;;;24.63;14.58;;;;;;;6.59;77.52;100004.41;1671264;84;21175;-60
2020/12/13 05:29:53;;;;;;;30.27;15.53;;;;;;;6.59;77.57;99999.59;1741179;81;21166;-63
2020/12/13 05:32:23;;;;;;;25.82;13.93;;;;;;;6.55;77.64;99989.14;1704845;82;21565;-60
2020/12/13 05:34:51;;;;;;;30.05;14.80;;;;;;;6.57;77.62;99989.58;1687356;84;21128;-60
2020/12/13 05:37:19;;;;;;;28.77;14.47;;;;;;;6.56;77.66;99988.72;1715074;82;21181;-59
2020/12/13 05:39:52;;;;;;;25.50;14.00;;;;;;;6.59;77.69;99991.75;1713334;82;21147;-62
2020/12/13 05:42:38;;;;;;;28.65;14.53;;;;;;;6.58;77.77;99988.70;1693001;83;21147;-60
2020/12/13 05:53:02;;;;;;;39.53;19.60;;;;;;;6.56;77.77;99997.88;1737950;81;21526;-60
2020/12/13 05:55:33;;;;;;;31.05;16.42;;;;;;;6.57;77.93;100007.45;1712330;84;21578;-63
2020/12/13 05:58:00;;;;;;;29.75;15.25;;;;;;;6.61;78.16;100015.73;1748658;81;21129;-60
2020/12/13 06:00:28;;;;;;;33.73;16.07;;;;;;;6.57;78.12;100016.61;1742706;81;21186;-60
2020/12/13 06:02:55;;;;;;;34.43;15.88;;;;;;;6.52;78.31;100012.67;1737656;82;21564;-62
2020/12/13 06:05:23;;;;;;;28.83;15.85;;;;;;;6.38;78.80;100008.78;1677817;82;21156;-60
2020/12/13 06:07:51;;;;;;;27.35;14.80;;;;;;;6.38;78.86;100010.09;1691099;82;21220;-64
2020/12/13 06:10:24;;;;;;;25.90;14.90;;;;;;;6.45;78.69;100010.94;1735738;82;21157;-63
2020/12/13 06:13:01;;;;;;;29.98;16.55;;;;;;;6.40;78.89;100016.19;1745509;82;21167;-63
2020/12/13 06:15:31;;;;;;;25.50;14.53;;;;;;;6.43;78.91;100018.36;1753333;80;21152;-62
2020/12/13 06:17:59;;;;;;;30.40;16.52;;;;;;;6.57;78.56;100022.26;1733496;82;21160;-62
2020/12/13 06:20:27;;;;;;;28.87;15.63;;;;;;;6.64;78.31;100025.30;1736812;80;21692;-63
2020/12/13 06:22:55;;;;;;;28.40;15.13;;;;;;;6.64;78.27;100019.63;1731661;82;21598;-62
2020/12/13 06:25:23;;;;;;;25.80;15.05;;;;;;;6.65;78.26;100020.05;1730270;82;21151;-62
2020/12/13 06:27:51;;;;;;;28.15;15.08;;;;;;;6.66;78.23;100020.94;1727739;82;21594;-63
2020/12/13 06:30:19;;;;;;;26.62;15.58;;;;;;;6.78;77.91;100027.88;1718278;83;21183;-59
2020/12/13 06:32:51;;;;;;;30.00;16.48;;;;;;;6.77;77.86;100027.03;1723135;83;21171;-60
2020/12/13 06:35:19;;;;;;;28.23;15.38;;;;;;;6.76;77.87;100030.94;1719592;82;21299;-63
2020/12/13 06:37:47;;;;;;;28.57;16.12;;;;;;;6.77;77.92;100037.49;1724320;82;21609;-60
2020/12/13 06:42:51;;;;;;;26.82;15.08;;;;;;;6.79;77.92;100026.59;1825995;77;20169;-62
2020/12/13 06:45:19;;;;;;;30.55;15.28;;;;;;;6.74;78.04;100029.65;1787544;78;21570;-63
2020/12/13 06:47:49;;;;;;;27.55;15.40;;;;;;;6.69;78.18;100037.94;1725295;83;21296;-63
2020/12/13 06:50:22;;;;;;;27.93;16.67;;;;;;;6.71;78.17;100042.73;1737146;82;21840;-60
2020/12/13 06:52:51;;;;;;;29.10;15.80;;;;;;;6.69;78.29;100037.48;1739914;82;21140;-63
2020/12/13 06:55:52;;;;;;;29.70;15.38;;;;;;;6.69;78.39;100045.33;1722876;82;21180;-63
2020/12/13 06:58:19;;;;;;;27.15;15.05;;;;;;;6.75;78.29;100046.20;1705599;83;21308;-59
2020/12/13 07:00:50;;;;;;;28.07;15.50;;;;;;;6.75;78.41;100053.63;1676312;85;21364;-61
2020/12/13 07:03:27;;;;;;;;;;;;;;;6.74;79.03;100048.38;1627987;86;21331;-60
2020/12/13 07:05:58;;;;;;;26.10;14.95;;;;;;;6.79;78.82;100051.44;1648234;86;20134;-61
2020/12/13 07:08:27;;;;;;;27.82;14.93;;;;;;;6.80;78.73;100049.27;1646226;85;21178;-63
2020/12/13 07:10:55;;;;;;;33.05;15.08;;;;;;;6.80;78.68;100041.41;1642103;85;21217;-61
2020/12/13 07:13:25;;;;;;;28.57;14.80;;;;;;;6.81;78.62;100041.84;1636006;85;21196;-58
2020/12/13 07:18:31;;;;;;;26.42;15.72;;;;;;;6.84;78.67;100042.27;1829715;77;22595;-58
2020/12/13 07:20:59;;;;;;;27.13;15.93;;;;;;;6.81;78.68;100043.16;1767797;80;21288;-63
2020/12/13 07:23:27;;;;;;;29.00;16.15;;;;;;;6.87;78.61;100050.53;1757608;80;21281;-58
2020/12/13 07:25:55;;;;;;;28.80;15.35;;;;;;;6.88;78.57;100049.66;1779471;80;21164;-58
2020/12/13 07:28:23;;;;;;;27.45;15.30;;;;;;;6.90;78.48;100059.68;1789799;80;21142;-58
2020/12/13 07:30:50;;;;;;;30.02;16.97;;;;;;;6.89;78.57;100065.78;1766752;80;21592;-58
2020/12/13 07:33:18;;;;;;;28.40;15.50;;;;;;;6.87;78.63;100068.42;1709910;81;21173;-63
2020/12/13 07:35:46;;;;;;;30.48;16.15;;;;;;;6.79;78.83;100071.06;1773834;80;21142;-59
2020/12/13 07:38:14;;;;;;;26.35;14.68;;;;;;;6.80;78.89;100067.57;1790832;80;21170;-63
2020/12/13 07:40:41;;;;;;;28.80;15.88;;;;;;;6.83;78.79;100067.56;1717633;81;21171;-58
2020/12/13 07:43:09;;;;;;;29.65;16.12;;;;;;;6.82;78.77;100067.13;1762484;80;21138;-63
2020/12/13 07:45:37;;;;;;;28.40;16.23;;;;;;;6.81;78.82;100078.89;1768304;80;21130;-64
2020/12/13 07:48:05;;;;;;;31.77;15.58;;;;;;;6.89;78.62;100082.37;1794874;80;21165;-64
2020/12/13 07:50:45;;;;;;;27.45;15.28;;;;;;;6.91;78.59;100079.31;1762013;80;21214;-59
2020/12/13 07:53:24;;;;;;;28.27;14.98;;;;;;;6.89;78.64;100084.98;1768029;80;21301;-60
2020/12/13 07:55:53;;;;;;;27.05;15.03;;;;;;;6.96;78.50;100081.48;1761633;80;21159;-64
2020/12/13 07:58:21;;;;;;;28.60;15.83;;;;;;;6.99;78.46;100080.17;1764530;80;21126;-65
2020/12/13 08:00:48;;;;;;;33.13;16.75;;;;;;;7.01;78.46;100083.23;1762243;80;21139;-64
2020/12/13 08:03:16;;;;;;;34.78;17.80;;;;;;;7.04;78.38;100072.30;1761596;80;21313;-64
2020/12/13 08:05:44;;;;;;;31.55;17.77;;;;;;;7.08;78.26;100077.08;1761722;81;21183;-64
2020/12/13 08:08:12;;;;;;;30.75;17.27;;;;;;;7.08;78.33;100073.15;1767967;80;21150;-60
2020/12/13 08:10:40;;;;;;;32.30;18.23;;;;;;;7.02;78.53;100075.36;1794871;80;21584;-59
2020/12/13 08:13:08;;;;;;;31.10;17.23;;;;;;;7.02;78.57;100072.74;1779466;80;21143;-63
2020/12/13 08:15:36;;;;;;;34.00;17.23;;;;;;;7.04;78.49;100076.22;1744499;81;21682;-60
2020/12/13 08:18:12;;;;;;;32.65;17.52;;;;;;;6.99;78.66;100075.36;1734460;80;21150;-63
2020/12/13 08:20:46;;;;;;;34.92;17.07;;;;;;;7.01;78.75;100077.99;1715907;83;21142;-64
2020/12/13 08:23:13;;;;;;;35.52;17.55;;;;;;;7.02;78.71;100085.83;1722659;82;21605;-64
2020/12/13 08:25:41;;;;;;;36.75;17.50;;;;;;;7.03;78.73;100079.72;1718796;82;21567;-64
2020/12/13 08:28:09;;;;;;;31.05;17.67;;;;;;;7.05;78.72;100092.36;1731090;82;21300;-65
2020/12/13 08:30:37;;;;;;;30.23;17.00;;;;;;;7.08;78.70;100082.31;1721801;82;21163;-61
2020/12/13 08:33:10;;;;;;;32.75;17.57;;;;;;;7.09;78.64;100082.74;1720113;82;21139;-61
2020/12/13 08:35:37;;;;;;;34.08;15.98;;;;;;;7.07;78.60;100074.91;1706188;83;21563;-63
2020/12/13 08:38:05;;;;;;;33.80;17.37;;;;;;;7.11;78.58;100077.95;1723976;82;21104;-65
2020/12/13 08:40:45;;;;;;;33.70;17.62;;;;;;;7.14;78.49;100073.14;1726883;82;21605;-60
2020/12/13 08:43:19;;;;;;;32.38;17.57;;;;;;;7.08;78.77;100070.11;1721036;82;21626;-65
2020/12/13 08:45:54;;;;;;;33.88;18.45;;;;;;;7.10;78.81;100075.33;1718073;82;21570;-61
2020/12/13 08:48:26;;;;;;;32.63;17.00;;;;;;;7.10;78.86;100061.81;1739386;82;21147;-61
2020/12/13 08:51:12;;;;;;;37.88;18.73;;;;;;;7.13;78.84;100062.23;1725494;82;21188;-66
2020/12/13 08:53:39;;;;;;;28.38;15.68;;;;;;;7.17;78.81;100060.49;1719526;82;21641;-61
2020/12/13 08:56:10;;;;;;;29.37;17.05;;;;;;;7.24;78.64;100049.12;1724013;82;21642;-60
2020/12/13 08:58:57;;;;;;;30.77;16.67;;;;;;;7.30;78.51;100050.39;1717318;83;21530;-61
2020/12/13 09:01:26;;;;;;;30.77;16.67;;;;;;;7.33;78.46;100043.83;1723084;82;21119;-65
2020/12/13 09:03:54;;;;;;;27.93;16.80;;;;;;;7.33;78.52;100039.05;1722257;82;21605;-60
2020/12/13 09:06:32;;;;;;;26.90;16.00;;;;;;;7.35;78.51;100046.00;1722773;82;21545;-64
2020/12/13 09:09:12;;;;;;;29.12;14.87;;;;;;;7.41;78.42;100047.75;1731646;82;21174;-64
2020/12/13 09:11:41;;;;;;;35.55;16.57;;;;;;;7.41;78.38;100053.84;1716563;82;21127;-61
2020/12/13 09:14:09;;;;;;;30.20;16.42;;;;;;;7.43;78.37;100050.77;1717356;83;21289;-64
2020/12/13 09:16:37;;;;;;;31.87;16.82;;;;;;;7.39;78.53;100052.97;1717299;82;21623;-65
2020/12/13 09:19:09;;;;;;;33.58;16.77;;;;;;;7.31;78.92;100052.12;1754208;80;21183;-64
2020/12/13 09:21:46;;;;;;;31.93;15.98;;;;;;;7.41;78.59;100047.29;1747169;80;21530;-61
2020/12/13 09:24:15;;;;;;;29.87;16.50;;;;;;;7.46;78.45;100046.41;1749003;80;21173;-65
2020/12/13 09:27:08;;;;;;;29.40;16.75;;;;;;;7.63;77.86;100048.93;1747582;81;21123;-65
2020/12/13 09:29:37;;;;;;;29.98;16.82;;;;;;;7.67;77.72;100038.87;1741038;81;21128;-64
2020/12/13 09:32:07;;;;;;;28.65;15.83;;;;;;;7.65;77.82;100035.38;1754269;80;21586;-60
2020/12/13 09:34:36;;;;;;;29.42;15.50;;;;;;;7.63;77.99;100039.77;1751321;80;21182;-61
2020/12/13 09:37:07;;;;;;;27.07;16.10;;;;;;;7.68;77.95;100036.25;1714923;82;21206;-64
2020/12/13 09:39:34;;;;;;;25.48;14.50;;;;;;;7.71;77.84;100035.35;1692320;83;21211;-64
2020/12/13 09:42:02;;;;;;;24.92;13.98;;;;;;;7.66;78.07;100036.70;1747831;80;21139;-60
2020/12/13 09:44:29;;;;;;;29.40;14.58;;;;;;;7.66;78.09;100038.02;1750726;80;21562;-64
2020/12/13 09:47:00;;;;;;;27.17;15.35;;;;;;;7.66;78.12;100034.08;1744972;80;21590;-60
2020/12/13 09:49:29;;;;;;;24.15;14.10;;;;;;;7.72;77.91;100034.05;1746196;80;21297;-63
2020/12/13 09:52:00;;;;;;;28.73;15.43;;;;;;;7.74;77.83;100027.02;1768123;80;21588;-61
2020/12/13 09:54:28;;;;;;;24.43;14.75;;;;;;;7.71;78.03;100029.69;1753079;80;21706;-64
2020/12/13 09:56:55;;;;;;;23.52;14.07;;;;;;;7.72;78.14;100034.47;1746142;80;21142;-62
2020/12/13 09:59:24;;;;;;;24.50;15.32;;;;;;;7.74;78.06;100024.86;1728763;81;21647;-61
2020/12/13 10:01:52;;;;;;;26.62;15.72;;;;;;;7.73;78.11;100030.52;1755780;80;21134;-64
2020/12/13 10:04:22;;;;;;;25.37;15.00;;;;;;;7.67;78.34;100026.66;1731158;80;21711;-62
2020/12/13 10:09:37;;;;;;;25.60;14.68;;;;;;;7.71;78.91;100023.56;1712365;82;21158;-61
2020/12/13 10:12:04;;;;;;;28.23;15.85;;;;;;;7.69;78.96;100018.77;1745918;80;21703;-64
2020/12/13 10:14:32;;;;;;;27.80;15.38;;;;;;;7.69;78.93;100019.66;1743197;80;21126;-61
2020/12/13 10:17:00;;;;;;;26.85;15.60;;;;;;;7.70;78.83;100013.97;1752821;80;21566;-64
2020/12/13 10:19:28;;;;;;;28.38;15.35;;;;;;;7.69;78.83;100017.47;1763748;80;21150;-64
2020/12/13 10:21:56;;;;;;;31.25;15.53;;;;;;;7.71;78.86;100015.70;1743617;80;21317;-64
2020/12/13 10:24:23;;;;;;;25.20;16.90;;;;;;;7.69;78.97;100020.09;1754144;80;21632;-65
2020/12/13 10:26:52;;;;;;;22.62;14.28;;;;;;;7.71;78.92;100023.56;1751076;80;21138;-62
2020/12/13 10:29:19;;;;;;;25.62;13.98;;;;;;;7.74;78.78;100023.55;1760636;80;21138;-62
2020/12/13 10:31:47;;;;;;;22.95;13.85;;;;;;;7.77;78.80;100023.95;1718151;82;21107;-62
2020/12/13 10:34:16;;;;;;;22.67;14.30;;;;;;;7.80;78.66;100021.31;1759387;80;21166;-65
2020/12/13 10:36:44;;;;;;;20.52;12.80;;;;;;;7.81;78.53;100016.50;1707398;82;21194;-65
2020/12/13 10:39:19;;;;;;;24.82;14.10;;;;;;;7.72;78.75;100017.02;1759257;80;21590;-66
2020/12/13 10:41:43;;;;;;;;;;;;;;;7.73;78.76;100023.12;1716985;82;21173;-65
2020/12/13 10:44:12;;;;;;;19.40;12.75;;;;;;;7.71;78.77;100019.22;1677922;83;20131;-64
2020/12/13 10:46:42;;;;;;;20.85;12.75;;;;;;;7.71;78.78;100021.83;1693682;82;21143;-65
2020/12/13 10:49:10;;;;;;;23.27;13.38;;;;;;;7.71;78.80;100023.14;1755047;80;21309;-63
2020/12/13 10:51:38;;;;;;;21.60;13.48;;;;;;;7.70;78.76;100018.78;1748305;80;21574;-66
2020/12/13 10:54:05;;;;;;;21.55;13.13;;;;;;;7.73;78.68;100021.35;1746956;80;21628;-65
2020/12/13 10:56:33;;;;;;;25.15;13.22;;;;;;;7.76;78.55;100028.34;1705548;82;21115;-65
2020/12/13 10:59:00;;;;;;;22.45;12.75;;;;;;;7.74;78.50;100020.47;1708055;82;21589;-63
2020/12/13 11:01:28;;;;;;;19.82;12.58;;;;;;;7.72;78.60;100016.14;1751571;80;21138;-63
2020/12/13 11:03:56;;;;;;;21.30;12.58;;;;;;;7.80;78.34;100018.70;1747475;80;21589;-65
2020/12/13 11:06:24;;;;;;;22.58;13.10;;;;;;;7.74;78.48;100015.69;1750551;80;21146;-63
2020/12/13 11:08:53;;;;;;;21.07;12.25;;;;;;;7.74;78.39;100015.69;1716566;82;21589;-63
2020/12/13 11:11:21;;;;;;;24.02;14.18;;;;;;;7.71;78.47;100012.66;1747651;80;21207;-65
2020/12/13 11:13:49;;;;;;;22.40;13.65;;;;;;;7.74;78.36;100011.30;1712050;83;21154;-64
2020/12/13 11:16:16;;;;;;;23.52;13.90;;;;;;;7.76;78.38;100011.31;1747932;81;21593;-63
2020/12/13 11:18:44;;;;;;;25.12;14.28;;;;;;;7.72;78.53;100002.62;1707883;83;21162;-62
2020/12/13 11:21:12;;;;;;;22.98;12.95;;;;;;;7.73;78.57;100003.02;1708450;82;21570;-64
2020/12/13 11:23:39;;;;;;;22.73;13.58;;;;;;;7.65;78.92;100003.95;1663961;84;21135;-62
2020/12/13 11:26:07;;;;;;;21.85;13.18;;;;;;;7.67;78.99;100011.36;1698427;84;21652;-62
2020/12/13 11:28:35;;;;;;;25.30;13.78;;;;;;;7.62;79.39;100012.72;1674268;84;21306;-64
2020/12/13 11:31:03;;;;;;;21.75;13.22;;;;;;;7.80;78.90;100015.66;1679634;84;21161;-65
2020/12/13 11:33:30;;;;;;;22.20;13.65;;;;;;;7.88;78.65;100012.55;1694439;84;21649;-65
2020/12/13 11:35:58;;;;;;;23.15;14.50;;;;;;;7.89;78.66;100012.97;1693052;83;21609;-61
2020/12/13 11:38:26;;;;;;;26.17;14.10;;;;;;;7.91;78.69;100015.57;1721033;82;21656;-65
2020/12/13 11:40:54;;;;;;;24.27;14.20;;;;;;;7.94;78.60;100012.93;1727770;81;21613;-64
2020/12/13 11:43:22;;;;;;;23.27;13.70;;;;;;;7.89;78.79;100007.73;1719133;82;21183;-61
2020/12/13 11:45:49;;;;;;;21.93;12.65;;;;;;;7.83;79.01;100006.89;1673352;84;21642;-64